Latest Coastal Weather Observations for Geraldton Airport

IDW60701

Issued at 3:35 pm WST Thursday 31 July 2014 (issued every 10 minutes, with the page automatically refreshed every 10 minutes)

About coastal observations | Map of coastal stations | Coastal observations for WA | Marine services | Other Formats
Station Details ID: 008315 Name: GERALDTON AIRPORT Lat: -28.80 Lon: 114.70 Height: 29.7 m
Data from the previous 72 hours. | See also: Recent months at Geraldton Airport
Date/Time
WST
Temp

°C
Wind Pressure Rain
since 9am
mm
Weather Cloud Vis
km
Sea
Height
m
Swell
Dir
 
Speed
knots
Gust
knots
hPa Trend Height
m
Period
s
Dir
31/03:30pm 18.3 SSE 11 14 1022.3 - 0.2 - Partly cloudy 10 - - - -
31/03:00pm 18.1 SE 9 12 1022.3 F 0.2 Fine Mostly cloudy 40 - - - -
31/02:30pm 19.5 E 8 11 1022.3 - 0.2 - Mostly cloudy 10 - - - -
31/02:00pm 19.1 ESE 8 10 1022.7 - 0.2 - Mostly cloudy 10 - - - -
31/01:30pm 18.0 ESE 10 14 1022.8 - 0.2 - Mostly cloudy 10 - - - -
31/01:00pm 18.8 ESE 12 18 1023.1 - 0.2 - Mostly cloudy 10 - - - -
31/12:30pm 19.2 ESE 12 16 1023.6 - 0.2 - Mostly cloudy 10 - - - -
31/12:00pm 18.4 SE 11 14 1024.2 F 0.2 Fine Mostly cloudy 40 - - - -
31/11:30am 18.3 E 12 17 1024.4 - 0.2 - Partly cloudy 10 - - - -
31/11:00am 17.9 ESE 12 16 1025.0 - 0.0 - Mostly clear 10 - - - -
31/10:30am 17.3 E 10 13 1025.2 - 0.0 - Mostly clear 10 - - - -
31/10:00am 16.4 E 9 11 1025.4 - 0.0 - Mostly clear 10 - - - -
31/09:30am 14.9 NNE 3 5 1025.3 - 0.0 - Mostly clear 10 - - - -
31/09:00am 12.8 NE 4 5 1025.3 R 0.2 Fine Mostly clear 35 - - - -
31/08:30am 11.0 NNE 5 7 1024.9 - 0.2 - Mostly clear 10 - - - -
31/08:00am 9.5 NE 5 6 1024.6 - 0.2 - Mostly clear 10 - - - -
31/07:30am 7.4 ENE 2 6 1024.3 - 0.2 - Mostly clear 10 - - - -
31/07:00am 7.7 NE 8 9 1023.8 - 0.2 - Mostly clear 10 - - - -
31/06:30am 8.3 NE 6 7 1023.5 - 0.2 - Mostly clear 10 - - - -
31/06:00am 8.6 NNE 8 9 1023.2 R 0.2 Fine Mostly clear 35 - - - -
31/05:30am 8.0 NE 7 8 1022.8 - 0.2 - - 10 - - - -
31/05:00am 8.4 NE 7 8 1022.6 - 0.2 - - 10 - - - -
31/04:30am 9.1 NNE 8 9 1022.6 - 0.2 - - 10 - - - -
31/04:00am 10.0 NNE 6 8 1022.7 - 0.2 - - 10 - - - -
31/03:30am 10.2 NNE 9 11 1023.0 - 0.2 - - 10 - - - -
31/03:00am 10.3 NE 9 11 1023.0 - 0.2 - - 10 - - - -
31/02:30am 10.5 NNE 7 10 1022.6 - 0.2 - - 10 - - - -
31/02:00am 10.3 NNE 8 9 1022.7 - 0.2 - - 10 - - - -
31/01:30am 9.0 NNE 9 11 1022.6 - 0.2 - - 10 - - - -
31/01:00am 8.5 NNE 8 9 1022.6 - 0.2 - - 10 - - - -
31/12:30am 8.8 NNE 8 10 1022.6 - 0.2 - - 10 - - - -
31/12:00am 9.7 NNE 7 8 1022.8 - 0.2 - - 10 - - - -
 
Date/Time
WST
Temp

°C
Wind Pressure Rain
since 9am
mm
Weather Cloud Vis
km
Sea
Height
m
Swell
Dir
 
Speed
knots
Gust
knots
hPa Trend Height
m
Period
s
Dir
30/11:30pm 9.8 NNE 7 7 1022.8 - 0.2 - - 10 - - - -
30/11:00pm 10.1 NNE 8 8 1023.0 - 0.2 - - 10 - - - -
30/10:30pm 10.9 NNE 7 8 1023.2 - 0.2 - - 10 - - - -
30/10:00pm 10.6 NNE 8 9 1023.2 - 0.2 - - 10 - - - -
30/09:30pm 10.8 NNE 7 8 1023.3 - 0.2 - - 10 - - - -
30/09:00pm 10.1 NNE 5 6 1023.4 - 0.2 - - 10 - - - -
30/08:30pm 10.6 NNE 5 6 1023.1 - 0.2 - - 10 - - - -
30/08:00pm 11.6 E 5 5 1023.1 - 0.2 - - 10 - - - -
30/07:30pm 13.2 ESE 3 4 1023.1 - 0.2 - - 10 - - - -
30/07:00pm 14.1 SW 5 6 1022.9 - 0.2 - - 10 - - - -
30/06:30pm 14.1 WSW 6 7 1023.0 - 0.2 - - 10 - - - -
30/06:00pm 15.2 WSW 7 8 1023.1 - 0.2 - - 10 - - - -
30/05:30pm 16.1 WSW 8 11 1022.9 - 0.2 - - 10 - - - -
30/05:00pm 17.6 SW 10 12 1022.5 - 0.2 - - 10 - - - -
30/04:30pm 18.8 SW 10 12 1022.3 - 0.2 - - 10 - - - -
30/04:00pm 19.2 SW 10 13 1022.2 - 0.2 - - 10 - - - -
30/03:30pm 19.3 SW 12 15 1022.2 - 0.2 - - 10 - - - -
30/03:00pm 19.7 WSW 11 15 1022.3 R 0.2 Fine Mostly clear 35 - - - -
30/02:30pm 20.3 WSW 9 12 1022.1 - 0.2 - Partly cloudy 10 - - - -
30/02:00pm 20.2 S 4 6 1021.9 - 0.2 - Partly cloudy 10 - - - -
30/01:30pm 19.5 SW 6 9 1022.0 - 0.2 - Partly cloudy 10 - - - -
30/01:00pm 20.5 NW 3 6 1022.4 - 0.2 - Partly cloudy 10 - - - -
30/12:30pm 20.3 ENE 3 7 1022.7 - 0.2 - Partly cloudy 10 - - - -
30/12:00pm 18.3 ESE 4 6 1023.1 F 0.0 Fine Partly cloudy 40 - - - -
30/11:30am 18.8 NE 6 8 1023.2 - 0.0 - Mostly clear 10 - - - -
30/11:00am 18.3 NE 6 8 1023.4 - 0.0 - Mostly clear 10 - - - -
30/10:30am 16.7 NNE 7 9 1023.8 - 0.0 - Mostly clear 10 - - - -
30/10:00am 15.2 NNE 9 11 1023.8 - 0.0 - Mostly clear 10 - - - -
30/09:30am 13.4 NNE 9 11 1023.9 - 0.0 - Mostly clear 10 - - - -
30/09:00am 12.3 NNE 10 14 1024.0 F 0.0 Fine Mostly clear 30 - - - -
30/08:30am 10.8 NNE 10 13 1023.5 - 0.0 - Mostly clear 10 - - - -
30/08:00am 9.4 NNE 10 13 1023.4 - 0.0 - Mostly clear 10 - - - -
30/07:30am 8.0 NNE 11 13 1023.3 - 0.0 - Mostly clear 10 - - - -
30/07:00am 8.1 NNE 10 14 1023.0 - 0.0 - Mostly clear 10 - - - -
30/06:30am 7.6 NNE 10 13 1023.1 - 0.0 - Mostly clear 10 - - - -
30/06:00am 8.2 NNE 10 11 1022.9 S 0.0 Fine Clear 30 - - - -
30/05:30am 7.7 NNE 10 12 1022.8 - 0.0 - - 10 - - - -
30/05:00am 7.7 NNE 9 11 1022.5 - 0.0 - - 10 - - - -
30/04:30am 7.8 NNE 9 11 1022.6 - 0.0 - - 10 - - - -
30/04:00am 7.8 NNE 9 11 1022.5 - 0.0 - - 10 - - - -
30/03:30am 8.0 NNE 9 11 1022.7 - 0.0 - - 10 - - - -
30/03:00am 8.0 NNE 9 10 1023.0 - 0.0 - - 10 - - - -
30/02:30am 8.2 NNE 9 10 1022.8 - 0.0 - - 10 - - - -
30/02:00am 8.6 NNE 9 11 1023.2 - 0.0 - - 10 - - - -
30/01:30am 8.6 NNE 8 9 1023.4 - 0.0 - - 10 - - - -
30/01:00am 8.3 NE 7 8 1023.4 - 0.0 - - 10 - - - -
30/12:30am 8.9 NNE 8 9 1023.4 - 0.0 - - 10 - - - -
30/12:00am 9.3 NNE 8 9 1023.5 - 0.0 - - 10 - - - -
 
Date/Time
WST
Temp

°C
Wind Pressure Rain
since 9am
mm
Weather Cloud Vis
km
Sea
Height
m
Swell
Dir
 
Speed
knots
Gust
knots
hPa Trend Height
m
Period
s
Dir
29/11:30pm 9.3 NNE 8 9 1023.7 - 0.0 - - 10 - - - -
29/11:00pm 9.0 NNE 7 8 1023.7 - 0.0 - - 10 - - - -
29/10:30pm 9.3 NNE 7 8 1023.8 - 0.0 - - 10 - - - -
29/10:00pm 8.6 NE 5 6 1023.9 - 0.0 - - 10 - - - -
29/09:30pm 9.0 ENE 3 4 1024.0 - 0.0 - - 10 - - - -
29/09:00pm 9.3 ESE 3 4 1024.1 F 0.0 Fine Mostly clear 30 - - - -
29/08:30pm 9.7 SE 5 5 1024.0 - 0.0 - Mostly clear 10 - - - -
29/08:00pm 10.2 SE 4 5 1023.9 - 0.0 - Mostly clear 10 - - - -
29/07:30pm 10.8 ESE 4 5 1023.8 - 0.0 - - 10 - - - -
29/07:00pm 11.7 SE 5 5 1023.8 - 0.0 - - 10 - - - -
29/06:30pm 12.3 SE 4 5 1023.8 - 0.0 - Mostly clear 10 - - - -
29/06:00pm 14.6 SSW 6 7 1023.7 F 0.0 Fine Mostly clear 30 - - - -
29/05:30pm 16.2 SSW 7 8 1023.3 - 0.0 - Mostly clear 10 - - - -
29/05:00pm 18.0 SW 7 10 1023.3 - 0.0 - Mostly clear 10 - - - -
29/04:30pm 19.0 SW 6 9 1023.2 - 0.0 - Mostly clear 10 - - - -
29/04:00pm 19.6 SE 2 5 1023.0 - 0.0 - Mostly clear 10 - - - -
29/03:30pm 20.5 CALM 0 0 1023.0 - 0.0 - Mostly clear 10 - - - -
29/03:00pm 19.8 NE 3 6 1023.2 R 0.0 Fine Mostly clear 30 - - - -
29/02:30pm 20.0 ENE 5 14 1023.0 - 0.0 - Mostly clear 10 - - - -
29/02:00pm 19.5 SE 5 7 1023.3 - 0.0 - Mostly clear 10 - - - -
29/01:30pm 19.6 SE 6 8 1023.6 - 0.0 - Partly cloudy 10 - - - -
29/01:00pm 19.7 E 4 10 1023.9 - 0.0 - Partly cloudy 10 - - - -
29/12:30pm 19.7 NNE 4 7 1024.4 - 0.0 - Partly cloudy 10 - - - -
29/12:00pm 19.1 NE 6 9 1024.8 F 0.0 Fine Mostly clear 30 - - - -
29/11:30am 18.5 N 5 8 1025.1 - 0.0 - Mostly clear 10 - - - -
29/11:00am 17.7 N 6 8 1025.4 - 0.0 - Mostly clear 10 - - - -
29/10:30am 16.3 NNE 8 10 1025.6 - 0.0 - Mostly clear 10 - - - -
29/10:00am 14.7 NNE 9 11 1025.8 - 0.0 - Mostly clear 10 - - - -
29/09:30am 13.3 NNE 11 14 1025.8 - 0.0 - Mostly clear 10 - - - -
29/09:00am 11.9 NNE 11 13 1026.0 R 0.2 Fine Mostly clear 30 - - - -
29/08:30am 10.4 NE 9 11 1025.8 - 0.2 - Mostly clear 10 - - - -
29/08:00am 9.4 NNE 11 13 1025.2 - 0.2 - Mostly clear 10 - - - -
29/07:30am 8.9 NNE 12 15 1024.8 - 0.2 - Mostly clear 10 - - - -
29/07:00am 8.6 NNE 12 15 1024.4 - 0.2 - Mostly clear 10 - - - -
29/06:30am 8.0 NNE 12 14 1024.2 - 0.2 - Mostly clear 10 - - - -
29/06:00am 7.7 NNE 12 14 1024.0 F 0.2 Fine Clear 30 - - - -
29/05:30am 7.9 NNE 11 13 1023.9 - 0.2 - - 10 - - - -
29/05:00am 8.1 NNE 9 12 1023.8 - 0.2 - - 10 - - - -
29/04:30am 8.1 NNE 11 13 1023.8 - 0.2 - - 10 - - - -
29/04:00am 8.0 NNE 9 12 1023.8 - 0.2 - - 10 - - - -
29/03:30am 8.2 NNE 11 13 1023.9 - 0.2 - - 10 - - - -
29/03:00am 8.4 NNE 9 10 1024.3 - 0.2 - - 10 - - - -
29/02:30am 8.4 NNE 9 12 1024.2 - 0.2 - - 10 - - - -
29/02:00am 8.5 NNE 7 9 1024.2 - 0.2 - - 10 - - - -
29/01:30am 8.8 NNE 8 9 1024.2 - 0.2 - - 10 - - - -
29/01:00am 8.9 NNE 10 11 1024.2 - 0.2 - - 10 - - - -
29/12:30am 9.1 NNE 9 11 1024.4 - 0.2 - - 10 - - - -
29/12:00am 9.3 NNE 9 10 1024.6 - 0.2 - - 10 - - - -
 
Date/Time
WST
Temp

°C
Wind Pressure Rain
since 9am
mm
Weather Cloud Vis
km
Sea
Height
m
Swell
Dir
 
Speed
knots
Gust
knots
hPa Trend Height
m
Period
s
Dir
28/11:30pm 9.5 NNE 9 10 1024.7 - 0.2 - - 10 - - - -
28/11:00pm 9.7 NNE 8 9 1024.8 - 0.2 - - 10 - - - -
28/10:30pm 9.9 NNE 7 8 1025.1 - 0.2 - - 10 - - - -
28/10:00pm 10.3 NNE 7 8 1025.2 - 0.2 - - 10 - - - -
28/09:30pm 10.6 NNE 7 8 1025.1 - 0.2 - - 10 - - - -
28/09:00pm 10.5 NNE 6 7 1025.1 R 0.2 Fine Partly cloudy 30 - - - -
28/08:30pm 9.5 NNE 4 5 1024.9 - 0.2 - Mostly clear 10 - - - -
28/08:00pm 10.1 NE 4 5 1024.6 - 0.2 - Mostly clear 10 - - - -
28/07:30pm 10.9 E 3 3 1024.5 - 0.2 - Mostly clear 10 - - - -
28/07:00pm 12.1 SE 3 4 1024.4 - 0.2 - Mostly clear 10 - - - -
28/06:30pm 14.2 SSW 5 5 1024.2 - 0.2 - Mostly clear 10 - - - -
28/06:00pm 15.0 SW 4 5 1023.8 F 0.2 Fine Mostly clear 30 - - - -
28/05:30pm 16.0 SW 6 7 1023.8 - 0.2 - Mostly clear 10 - - - -
28/05:00pm 17.7 SW 7 9 1023.5 - 0.2 - Mostly clear 10 - - - -
28/04:30pm 18.6 SW 7 9 1023.5 - 0.2 - Mostly clear 10 - - - -
28/04:00pm 19.3 SW 8 11 1023.3 - 0.2 - Mostly clear 10 - - - -

Other Formats:

Comma delimited format used in spreadsheet applications
http://www.bom.gov.au/fwo/IDW60701/IDW60701.94403.axf

JavaScript Object Notation format (JSON) in row-major order
http://www.bom.gov.au/fwo/IDW60701/IDW60701.94403.json